Time;durP1;ratioP1;P1;durP2;ratioP2;P2;SDS_P1;SDS_P2;PMS_P1;PMS_P2;Temp;Humidity;BMP_temperature;BMP_pressure;BME280_temperature;BME280_humidity;BME280_pressure;Samples;Min_cycle;Max_cycle;Signal;HPM_P1;HPM_P2
2023/08/17 00:00:44;;;;;;;4.07;3.05;;;;;;;18.67;85.73;101744.78;5030032;28;20057;-68
2023/08/17 00:03:09;;;;;;;4.95;3.33;;;;;;;18.63;85.90;101754.94;5023850;28;20029;-69
2023/08/17 00:05:35;;;;;;;4.95;3.20;;;;;;;18.61;86.24;101751.50;5027703;28;20030;-69
2023/08/17 00:08:02;;;;;;;5.65;3.10;;;;;;;18.55;86.79;101753.75;5046910;28;20055;-68
2023/08/17 00:10:28;;;;;;;5.07;3.20;;;;;;;18.54;87.01;101744.78;5043739;28;20025;-68
2023/08/17 00:12:53;;;;;;;4.65;2.90;;;;;;;18.51;87.05;101747.69;5052672;28;20035;-69
2023/08/17 00:15:19;;;;;;;4.72;3.25;;;;;;;18.44;87.54;101746.41;5042572;28;20032;-70
2023/08/17 00:17:44;;;;;;;3.50;2.83;;;;;;;18.39;87.84;101746.75;5033383;28;20036;-69
2023/08/17 00:20:10;;;;;;;6.53;3.10;;;;;;;18.32;88.45;101748.13;5037624;28;20179;-69
2023/08/17 00:22:35;;;;;;;3.22;2.90;;;;;;;18.28;88.99;101749.31;5043256;28;20496;-69
2023/08/17 00:25:03;;;;;;;5.80;3.20;;;;;;;18.28;88.98;101752.00;5054692;28;20565;-68
2023/08/17 00:27:28;;;;;;;6.00;3.05;;;;;;;18.25;89.16;101746.81;5047555;28;20187;-69
2023/08/17 00:29:54;;;;;;;5.10;2.75;;;;;;;18.26;88.76;101734.19;5054664;28;20276;-68
2023/08/17 00:32:19;;;;;;;6.35;3.03;;;;;;;18.30;89.04;101736.56;5039303;28;20036;-69
2023/08/17 00:34:44;;;;;;;5.05;3.03;;;;;;;18.31;88.68;101740.13;5038682;28;20040;-69
2023/08/17 00:37:10;;;;;;;4.65;2.75;;;;;;;18.33;88.77;101744.47;5041879;28;20021;-68
2023/08/17 00:39:35;;;;;;;5.47;3.10;;;;;;;18.30;89.11;101743.81;5039854;28;20033;-69
2023/08/17 00:42:00;;;;;;;4.43;3.08;;;;;;;18.28;88.85;101743.91;5028250;28;20119;-68
2023/08/17 00:44:26;;;;;;;5.18;2.92;;;;;;;18.27;88.76;101738.66;5024580;28;20381;-69
2023/08/17 00:46:52;;;;;;;4.47;3.00;;;;;;;18.22;88.85;101741.63;5037049;28;20029;-68
2023/08/17 00:49:17;;;;;;;4.28;2.88;;;;;;;18.22;88.68;101743.47;5035535;28;20037;-69
2023/08/17 00:51:43;;;;;;;5.13;3.00;;;;;;;18.26;88.92;101748.53;5027900;28;20116;-69
2023/08/17 00:54:10;;;;;;;4.22;2.65;;;;;;;18.24;88.72;101746.94;5030858;28;20422;-69
2023/08/17 00:56:36;;;;;;;4.38;3.00;;;;;;;18.22;88.56;101744.31;5039691;28;20035;-69
2023/08/17 00:59:01;;;;;;;3.40;2.67;;;;;;;18.22;88.79;101748.84;5026752;28;20551;-69
2023/08/17 01:01:27;;;;;;;4.47;2.88;;;;;;;18.19;88.22;101741.88;5034354;28;20108;-70
2023/08/17 01:03:52;;;;;;;5.63;2.80;;;;;;;18.23;88.18;101753.31;5033175;28;20033;-69
2023/08/17 01:06:18;;;;;;;5.88;2.75;;;;;;;18.15;88.16;101754.69;5035999;28;20565;-69
2023/08/17 01:08:45;;;;;;;6.05;3.15;;;;;;;18.10;88.01;101753.25;5050372;28;20028;-69
2023/08/17 01:11:20;;;;;;;4.85;3.10;;;;;;;18.14;88.14;101752.06;5030180;28;20324;-71
2023/08/17 01:14:01;;;;;;;5.45;3.03;;;;;;;18.16;88.16;101761.78;5044437;28;20495;-70
2023/08/17 01:16:31;;;;;;;4.13;2.63;;;;;;;18.11;88.08;101747.78;5029771;28;20037;-70
2023/08/17 01:19:00;;;;;;;5.13;2.55;;;;;;;18.22;87.69;101755.09;5044502;28;20134;-70
2023/08/17 01:21:38;;;;;;;4.93;2.95;;;;;;;18.13;87.65;101755.75;5047890;28;20098;-68
2023/08/17 01:24:03;;;;;;;3.45;3.03;;;;;;;18.11;88.02;101747.78;5047368;28;20024;-69
2023/08/17 01:26:29;;;;;;;3.88;2.70;;;;;;;18.07;87.64;101745.41;5048649;28;20123;-69
2023/08/17 01:28:54;;;;;;;4.53;2.97;;;;;;;18.03;87.89;101749.25;5046657;28;20024;-69
2023/08/17 01:31:31;;;;;;;4.80;2.95;;;;;;;17.98;88.77;101754.97;5047682;28;20032;-70
2023/08/17 01:34:00;;;;;;;4.13;3.00;;;;;;;17.92;88.66;101742.75;5034191;28;20025;-68
2023/08/17 01:36:28;;;;;;;4.97;2.75;;;;;;;17.88;89.14;101745.75;5054467;28;20036;-68
2023/08/17 01:38:56;;;;;;;4.60;3.08;;;;;;;17.81;89.40;101749.84;5049144;28;20032;-69
2023/08/17 01:41:23;;;;;;;4.72;3.00;;;;;;;17.85;89.66;101744.16;5052110;28;20028;-69
2023/08/17 01:43:50;;;;;;;4.70;3.00;;;;;;;17.80;90.09;101742.72;5044682;28;20156;-70
2023/08/17 01:46:16;;;;;;;4.38;2.80;;;;;;;17.79;90.24;101733.78;5042075;28;20085;-69
2023/08/17 01:48:45;;;;;;;3.50;3.05;;;;;;;17.68;90.95;101731.78;5041965;28;20051;-69
2023/08/17 01:51:17;;;;;;;8.00;3.03;;;;;;;17.72;91.02;101735.13;5050723;28;20059;-69
2023/08/17 01:53:43;;;;;;;4.15;3.03;;;;;;;17.71;91.01;101735.22;5044056;28;20028;-69
2023/08/17 01:56:08;;;;;;;6.25;3.47;;;;;;;17.63;91.59;101735.72;5052549;28;20065;-70
2023/08/17 01:58:34;;;;;;;6.75;3.60;;;;;;;17.56;92.06;101731.75;5049906;28;20036;-70
2023/08/17 02:00:59;;;;;;;5.88;3.33;;;;;;;17.54;92.71;101733.66;5045877;28;20582;-69
2023/08/17 02:03:24;;;;;;;3.38;3.00;;;;;;;17.51;92.89;101737.41;5041863;28;20024;-70
2023/08/17 02:05:50;;;;;;;5.05;3.05;;;;;;;17.50;93.04;101735.69;5039253;28;20049;-69
2023/08/17 02:08:15;;;;;;;5.38;3.28;;;;;;;17.57;93.15;101737.00;5040416;28;20036;-69
2023/08/17 02:10:40;;;;;;;4.05;3.15;;;;;;;17.52;93.02;101733.78;5031030;28;20028;-69
2023/08/17 02:13:06;;;;;;;4.63;3.28;;;;;;;17.53;93.67;101743.56;5043098;28;20029;-69
2023/08/17 02:15:31;;;;;;;6.50;3.95;;;;;;;17.52;94.14;101744.53;5038549;28;20036;-69
2023/08/17 02:18:03;;;;;;;6.28;3.83;;;;;;;17.47;94.25;101738.56;5032005;28;20267;-69
2023/08/17 02:20:29;;;;;;;3.88;3.17;;;;;;;17.49;94.08;101743.88;5046369;28;20029;-69
2023/08/17 02:22:54;;;;;;;6.07;4.13;;;;;;;17.48;94.36;101740.31;5034326;28;20113;-69
2023/08/17 02:25:19;;;;;;;5.45;3.70;;;;;;;17.54;94.91;101745.28;5037397;28;20463;-70
2023/08/17 02:27:45;;;;;;;7.03;3.80;;;;;;;17.45;94.53;101742.34;5041518;28;20027;-69
2023/08/17 02:30:11;;;;;;;6.13;3.95;;;;;;;17.50;95.03;101746.44;5050394;28;20399;-69
2023/08/17 02:32:36;;;;;;;4.55;3.50;;;;;;;17.46;94.85;101744.91;5040775;28;20142;-69
2023/08/17 02:35:02;;;;;;;4.38;3.97;;;;;;;17.43;95.08;101751.38;5042262;28;20481;-69
2023/08/17 02:37:27;;;;;;;6.75;3.97;;;;;;;17.47;95.41;101745.78;5046696;28;20071;-69
2023/08/17 02:39:53;;;;;;;5.25;3.92;;;;;;;17.43;95.50;101737.94;5031744;28;20022;-69
2023/08/17 02:42:18;;;;;;;6.10;4.10;;;;;;;17.43;95.89;101737.03;5034557;28;20493;-68
2023/08/17 02:44:43;;;;;;;7.30;3.85;;;;;;;17.47;95.72;101730.50;5037301;28;20029;-69
2023/08/17 02:47:09;;;;;;;5.32;3.80;;;;;;;17.50;96.23;101732.13;5051741;28;20101;-69
2023/08/17 02:49:35;;;;;;;6.28;3.67;;;;;;;17.49;95.66;101733.09;5062537;28;20136;-68
2023/08/17 02:52:00;;;;;;;4.43;3.65;;;;;;;17.49;95.53;101723.19;5051063;28;20024;-68
2023/08/17 02:54:26;;;;;;;6.22;4.13;;;;;;;17.46;95.73;101727.91;5043413;28;20402;-68
2023/08/17 02:56:51;;;;;;;5.22;3.33;;;;;;;17.48;95.70;101726.00;5047313;28;20457;-68
2023/08/17 02:59:16;;;;;;;6.82;3.85;;;;;;;17.44;95.57;101719.94;5036544;28;20029;-68
2023/08/17 03:01:43;;;;;;;4.65;3.80;;;;;;;17.41;96.00;101712.94;5040868;28;20134;-68
2023/08/17 03:04:08;;;;;;;8.55;3.80;;;;;;;17.36;96.41;101717.75;5045576;28;20115;-68
2023/08/17 03:06:34;;;;;;;6.63;3.80;;;;;;;17.40;96.24;101721.13;5051716;28;20112;-68
2023/08/17 03:08:59;;;;;;;6.38;4.13;;;;;;;17.32;96.21;101727.00;5046687;28;20503;-69
2023/08/17 03:11:24;;;;;;;7.43;4.10;;;;;;;17.34;96.84;101726.88;5058677;28;20432;-68
2023/08/17 03:13:50;;;;;;;4.70;3.88;;;;;;;17.32;96.81;101720.75;5038814;28;20415;-68
2023/08/17 03:16:15;;;;;;;5.30;3.67;;;;;;;17.34;96.66;101721.50;5045436;28;20025;-69
2023/08/17 03:18:41;;;;;;;6.78;4.00;;;;;;;17.24;96.85;101713.19;5052621;28;20017;-68
2023/08/17 03:21:06;;;;;;;7.05;4.40;;;;;;;17.23;96.82;101715.97;5040734;28;20070;-69
2023/08/17 03:23:32;;;;;;;6.88;3.80;;;;;;;17.18;97.58;101713.59;5047515;28;20399;-69
2023/08/17 03:25:58;;;;;;;5.53;3.63;;;;;;;17.17;97.00;101720.75;5043018;28;20092;-68
2023/08/17 03:28:25;;;;;;;5.68;3.78;;;;;;;17.19;97.17;101715.31;5042549;28;20035;-70
2023/08/17 03:30:50;;;;;;;6.07;3.97;;;;;;;17.16;97.17;101710.13;5037352;28;20557;-68
2023/08/17 03:33:15;;;;;;;7.25;4.10;;;;;;;17.15;96.93;101711.94;5046450;28;20156;-70
2023/08/17 03:35:41;;;;;;;4.82;3.90;;;;;;;17.15;97.10;101708.41;5045478;28;20025;-69
2023/08/17 03:38:06;;;;;;;7.32;4.18;;;;;;;17.13;96.93;101708.47;5045111;28;20039;-71
2023/08/17 03:40:36;;;;;;;5.68;3.40;;;;;;;17.11;96.64;101701.50;5037175;28;20257;-68
2023/08/17 03:43:01;;;;;;;5.45;3.72;;;;;;;17.13;96.57;101710.31;5049643;28;20025;-68
2023/08/17 03:45:26;;;;;;;5.97;3.80;;;;;;;17.12;96.16;101703.22;5042995;28;20271;-68
2023/08/17 03:47:52;;;;;;;4.20;3.38;;;;;;;17.12;96.31;101709.44;5045914;28;20130;-68
2023/08/17 03:50:17;;;;;;;9.07;3.42;;;;;;;17.06;96.72;101715.25;5045061;28;20033;-68
2023/08/17 03:52:42;;;;;;;3.80;3.40;;;;;;;17.12;96.21;101711.28;5057188;28;20056;-68
2023/08/17 03:55:08;;;;;;;6.13;3.70;;;;;;;17.05;96.16;101709.94;5067539;28;20036;-68
2023/08/17 03:57:33;;;;;;;6.28;3.72;;;;;;;17.02;96.91;101724.47;5056795;28;20055;-69
2023/08/17 03:59:59;;;;;;;6.10;3.67;;;;;;;17.03;96.62;101726.19;5042675;28;20570;-69
2023/08/17 04:02:24;;;;;;;5.32;3.92;;;;;;;17.02;96.55;101716.41;5050468;28;20028;-69
2023/08/17 04:04:49;;;;;;;4.57;3.78;;;;;;;17.06;96.14;101714.38;5043151;28;20029;-69
2023/08/17 04:07:24;;;;;;;6.57;3.90;;;;;;;16.98;96.71;101722.94;5040419;28;20093;-69
2023/08/17 04:09:49;;;;;;;5.38;3.63;;;;;;;16.95;96.09;101724.94;5043941;28;20101;-69
2023/08/17 04:12:15;;;;;;;7.78;3.85;;;;;;;16.91;96.70;101738.56;5041499;28;20047;-69
2023/08/17 04:14:40;;;;;;;4.45;3.53;;;;;;;16.91;96.17;101738.56;5046494;28;20024;-70
2023/08/17 04:17:06;;;;;;;5.55;3.45;;;;;;;16.96;96.40;101740.97;5053958;28;20491;-69
2023/08/17 04:19:31;;;;;;;6.47;3.53;;;;;;;16.88;96.96;101738.75;5043162;28;20017;-69
2023/08/17 04:21:56;;;;;;;6.60;3.70;;;;;;;16.88;97.14;101741.44;5050721;28;20028;-69
2023/08/17 04:24:22;;;;;;;7.47;3.40;;;;;;;16.89;97.09;101748.59;5055616;28;20024;-69
2023/08/17 04:26:47;;;;;;;6.15;3.88;;;;;;;16.91;96.82;101751.16;5066347;28;20032;-69
2023/08/17 04:29:13;;;;;;;6.15;3.50;;;;;;;16.87;96.82;101747.78;5046314;28;20033;-69
2023/08/17 04:31:38;;;;;;;5.93;3.40;;;;;;;16.88;96.50;101754.91;5044423;28;20522;-69
2023/08/17 04:34:04;;;;;;;6.68;3.67;;;;;;;16.88;96.56;101749.53;5047962;28;20086;-69
2023/08/17 04:36:29;;;;;;;6.50;3.80;;;;;;;16.89;96.43;101745.03;5048878;28;20495;-69
2023/08/17 04:38:54;;;;;;;5.50;3.38;;;;;;;16.83;96.16;101745.41;5052299;28;20037;-68
2023/08/17 04:41:20;;;;;;;5.45;3.70;;;;;;;16.85;96.28;101749.75;5041628;28;20492;-69
2023/08/17 04:43:46;;;;;;;4.65;3.55;;;;;;;16.87;96.38;101753.19;5049665;28;20410;-69
2023/08/17 04:46:12;;;;;;;9.30;3.60;;;;;;;16.81;96.29;101755.41;5042307;28;20119;-69
2023/08/17 04:48:37;;;;;;;5.28;3.45;;;;;;;16.80;96.53;101756.34;5053533;28;20038;-69
2023/08/17 04:51:03;;;;;;;4.78;3.15;;;;;;;16.78;96.81;101760.97;5050991;28;20059;-69
2023/08/17 04:53:29;;;;;;;5.93;3.38;;;;;;;16.80;96.85;101757.19;5048399;28;20226;-68
2023/08/17 04:55:54;;;;;;;7.72;3.50;;;;;;;16.80;96.14;101753.66;5047462;28;20405;-68
2023/08/17 04:58:19;;;;;;;5.53;2.92;;;;;;;16.75;96.63;101759.31;5053132;28;20371;-68
2023/08/17 05:00:46;;;;;;;5.35;3.40;;;;;;;16.77;96.89;101757.41;5045024;28;20039;-68
2023/08/17 05:03:11;;;;;;;4.75;3.47;;;;;;;16.74;96.67;101752.22;5039904;28;20095;-69
2023/08/17 05:05:37;;;;;;;5.25;3.45;;;;;;;16.79;97.08;101750.09;5040297;28;20028;-68
2023/08/17 05:08:02;;;;;;;6.10;3.70;;;;;;;16.82;96.95;101754.44;5054731;28;20052;-67
2023/08/17 05:10:28;;;;;;;7.13;3.60;;;;;;;16.88;96.32;101745.97;5034355;28;20037;-68
2023/08/17 05:12:55;;;;;;;5.38;3.47;;;;;;;16.88;96.80;101748.66;5047933;28;20028;-68
2023/08/17 05:15:20;;;;;;;4.93;3.25;;;;;;;16.89;95.75;101736.97;5048578;28;20055;-68
2023/08/17 05:17:46;;;;;;;4.35;3.10;;;;;;;16.87;96.53;101736.19;5038058;28;20028;-68
2023/08/17 05:20:12;;;;;;;5.53;3.03;;;;;;;16.96;96.60;101750.88;5041859;28;20391;-68
2023/08/17 05:22:38;;;;;;;5.20;3.22;;;;;;;17.02;96.39;101747.81;5050019;28;20040;-68
2023/08/17 05:25:04;;;;;;;5.28;3.30;;;;;;;17.01;96.06;101740.69;5040555;28;20029;-68
2023/08/17 05:27:29;;;;;;;5.57;3.42;;;;;;;16.97;95.75;101747.22;5055234;28;20028;-68
2023/08/17 05:29:55;;;;;;;5.05;3.00;;;;;;;16.97;96.04;101747.22;5037357;28;20120;-68
2023/08/17 05:32:20;;;;;;;5.50;3.63;;;;;;;16.97;95.82;101749.91;5035617;28;20102;-68
2023/08/17 05:34:47;;;;;;;4.65;2.85;;;;;;;16.96;96.34;101753.56;5050552;28;20031;-69
2023/08/17 05:37:12;;;;;;;6.55;3.30;;;;;;;16.95;96.37;101749.16;5049408;28;20032;-68
2023/08/17 05:39:39;;;;;;;4.72;3.25;;;;;;;16.98;96.45;101746.28;5044579;28;20047;-68
2023/08/17 05:42:04;;;;;;;4.97;3.30;;;;;;;17.04;96.19;101752.09;5049180;28;20035;-67
2023/08/17 05:44:30;;;;;;;7.05;3.60;;;;;;;17.07;95.91;101756.44;5049617;28;20510;-68
2023/08/17 05:46:55;;;;;;;5.28;3.30;;;;;;;17.11;95.87;101750.75;5032236;28;20039;-68
2023/08/17 05:49:21;;;;;;;5.75;3.83;;;;;;;17.16;95.49;101758.53;5036533;28;20116;-68
2023/08/17 05:51:46;;;;;;;7.72;3.92;;;;;;;17.11;95.67;101756.16;5040800;28;21505;-68
2023/08/17 05:54:12;;;;;;;5.18;3.55;;;;;;;17.06;95.60;101758.28;5038027;28;20510;-68
2023/08/17 05:56:37;;;;;;;4.97;3.75;;;;;;;17.06;96.43;101758.28;5033806;28;20051;-69
2023/08/17 05:59:04;;;;;;;6.05;3.70;;;;;;;17.04;95.55;101760.19;5041439;28;20029;-69
2023/08/17 06:01:31;;;;;;;5.20;3.83;;;;;;;16.96;96.74;101756.25;5036999;28;20058;-69
2023/08/17 06:03:56;;;;;;;6.45;3.97;;;;;;;17.11;96.22;101756.16;5035386;28;20627;-69
2023/08/17 06:06:21;;;;;;;5.97;3.50;;;;;;;17.12;96.40;101759.69;5034023;28;20033;-69
2023/08/17 06:08:47;;;;;;;6.05;3.78;;;;;;;17.25;94.75;101770.53;5035044;28;20032;-69
2023/08/17 06:11:12;;;;;;;7.45;3.83;;;;;;;17.35;94.53;101764.47;5041511;28;20028;-70
2023/08/17 06:13:37;;;;;;;7.43;3.88;;;;;;;17.36;94.44;101765.34;5047377;28;20371;-69
2023/08/17 06:16:03;;;;;;;4.95;3.95;;;;;;;17.32;94.61;101753.91;5025653;28;20254;-68
2023/08/17 06:18:29;;;;;;;4.40;3.35;;;;;;;17.42;94.54;101760.41;5044749;28;20032;-68
2023/08/17 06:20:55;;;;;;;6.00;3.67;;;;;;;17.46;94.21;101762.91;5038623;28;20101;-68
2023/08/17 06:23:20;;;;;;;7.45;3.72;;;;;;;17.52;94.02;101766.06;5043128;28;20123;-69
2023/08/17 06:25:46;;;;;;;8.73;4.13;;;;;;;17.72;93.51;101763.88;5050157;28;20016;-70
2023/08/17 06:28:11;;;;;;;7.25;3.90;;;;;;;17.84;93.00;101779.25;5041216;28;20398;-69
2023/08/17 06:30:37;;;;;;;5.68;3.60;;;;;;;17.76;92.41;101771.66;5041451;28;20475;-68
2023/08/17 06:33:02;;;;;;;6.50;3.83;;;;;;;17.67;93.06;101766.88;5035625;28;20040;-68
2023/08/17 06:35:27;;;;;;;8.98;4.15;;;;;;;17.57;93.18;101771.16;5045119;28;20029;-68
2023/08/17 06:37:56;;;;;;;5.22;4.10;;;;;;;17.55;93.48;101771.22;5044184;28;20025;-69
2023/08/17 06:40:22;;;;;;;8.13;5.63;;;;;;;17.62;93.47;101771.69;5040436;28;20480;-70
2023/08/17 06:42:47;;;;;;;6.53;4.13;;;;;;;17.67;93.12;101767.72;5037449;28;20082;-69
2023/08/17 06:45:12;;;;;;;5.32;4.00;;;;;;;17.76;93.34;101768.97;5042686;28;20488;-70
2023/08/17 06:47:38;;;;;;;6.13;3.95;;;;;;;17.72;92.87;101761.19;5044815;28;20496;-70
2023/08/17 06:50:04;;;;;;;7.05;4.57;;;;;;;17.76;92.14;101770.81;5035022;28;20098;-69
2023/08/17 06:52:29;;;;;;;6.10;4.07;;;;;;;17.66;92.73;101767.84;5039767;28;20490;-68
2023/08/17 06:54:55;;;;;;;6.32;4.10;;;;;;;17.74;93.79;101772.72;5037402;28;20021;-69
2023/08/17 06:57:21;;;;;;;5.60;3.80;;;;;;;17.90;93.29;101777.03;5033996;28;20496;-68
2023/08/17 06:59:47;;;;;;;7.15;4.25;;;;;;;17.91;93.25;101770.66;5036753;28;20123;-68
2023/08/17 07:02:12;;;;;;;5.70;4.00;;;;;;;17.99;92.23;101763.91;5042612;28;20104;-69
2023/08/17 07:04:38;;;;;;;6.38;4.65;;;;;;;17.97;91.46;101766.69;5027495;28;20492;-68
2023/08/17 07:07:03;;;;;;;6.03;4.10;;;;;;;17.92;91.97;101768.81;5034285;28;20025;-68
2023/08/17 07:09:29;;;;;;;5.10;4.25;;;;;;;17.92;92.10;101768.81;5034895;28;20028;-69
2023/08/17 07:11:54;;;;;;;6.82;4.15;;;;;;;17.95;92.35;101775.84;5040698;28;20703;-69
2023/08/17 07:14:19;;;;;;;6.03;4.20;;;;;;;17.92;92.26;101767.00;5040801;28;20048;-68
2023/08/17 07:16:45;;;;;;;6.50;4.43;;;;;;;18.02;92.50;101761.88;5041482;28;20424;-68
2023/08/17 07:19:11;;;;;;;6.97;4.20;;;;;;;18.12;91.86;101762.97;5050257;28;20414;-68
2023/08/17 07:21:36;;;;;;;7.38;4.43;;;;;;;18.13;91.30;101767.38;5042650;28;20032;-69
2023/08/17 07:24:15;;;;;;;6.65;4.18;;;;;;;18.18;90.79;101769.75;5054709;28;20025;-68
2023/08/17 07:26:40;;;;;;;6.40;4.00;;;;;;;18.14;90.76;101768.22;5034132;28;20172;-69
2023/08/17 07:29:06;;;;;;;6.70;4.18;;;;;;;18.12;90.96;101770.19;5042086;28;20033;-69
2023/08/17 07:31:33;;;;;;;9.20;4.53;;;;;;;18.12;91.48;101770.19;5044616;28;20038;-68
2023/08/17 07:33:59;;;;;;;6.32;4.38;;;;;;;18.10;90.88;101773.00;5037963;28;20134;-68
2023/08/17 07:36:24;;;;;;;6.53;3.97;;;;;;;18.13;91.29;101767.38;5044888;28;20054;-68
2023/08/17 07:38:49;;;;;;;7.20;3.83;;;;;;;18.30;90.66;101778.84;5039726;28;20025;-69
2023/08/17 07:41:15;;;;;;;6.72;3.90;;;;;;;18.34;90.27;101775.81;5038585;28;20024;-68
2023/08/17 07:43:41;;;;;;;6.13;4.13;;;;;;;18.32;89.24;101780.47;5040528;28;20033;-68
2023/08/17 07:46:06;;;;;;;4.88;4.20;;;;;;;18.21;89.64;101777.63;5043949;28;20035;-69
2023/08/17 07:48:33;;;;;;;6.70;4.00;;;;;;;18.31;89.99;101784.13;5043521;28;20057;-69
2023/08/17 07:50:59;;;;;;;4.20;3.63;;;;;;;18.25;89.66;101779.16;5048472;28;20059;-69
2023/08/17 07:53:25;;;;;;;4.95;3.90;;;;;;;18.32;90.23;101783.16;5047323;28;20037;-68
2023/08/17 07:55:50;;;;;;;4.85;3.95;;;;;;;18.36;89.48;101790.06;5041062;28;20025;-68
2023/08/17 07:58:16;;;;;;;5.82;4.13;;;;;;;18.39;89.14;101789.88;5057147;28;20036;-68
2023/08/17 08:00:41;;;;;;;6.82;4.40;;;;;;;18.40;89.59;101791.59;5036041;28;20132;-68
2023/08/17 08:03:06;;;;;;;6.45;4.05;;;;;;;18.35;89.03;101787.47;5044147;28;20040;-69
2023/08/17 08:05:32;;;;;;;4.88;4.38;;;;;;;18.27;88.51;101793.41;5037791;28;20534;-69
2023/08/17 08:07:57;;;;;;;6.35;4.53;;;;;;;18.22;89.31;101791.97;5030971;28;20025;-69
2023/08/17 08:10:23;;;;;;;9.60;4.97;;;;;;;18.18;89.68;101785.91;5042870;28;20478;-69
2023/08/17 08:12:48;;;;;;;6.68;4.70;;;;;;;18.18;90.19;101785.91;5050302;28;20545;-69
2023/08/17 08:15:13;;;;;;;7.15;5.20;;;;;;;18.25;89.89;101783.69;5035864;28;20720;-69
2023/08/17 08:17:39;;;;;;;9.05;5.15;;;;;;;18.30;89.55;101786.91;5042509;28;20028;-69
2023/08/17 08:20:07;;;;;;;7.80;4.68;;;;;;;18.28;90.00;101781.66;5038981;28;20388;-68
2023/08/17 08:22:32;;;;;;;8.15;4.53;;;;;;;18.30;89.42;101781.53;5043186;28;20036;-69
2023/08/17 08:24:58;;;;;;;7.20;4.90;;;;;;;18.29;89.66;101777.97;5032271;28;20456;-69
2023/08/17 08:27:24;;;;;;;6.60;4.80;;;;;;;18.30;89.96;101782.38;5053124;28;20025;-70
2023/08/17 08:29:49;;;;;;;9.30;4.90;;;;;;;18.34;89.69;101783.03;5044347;28;20029;-69
2023/08/17 08:32:15;;;;;;;7.57;4.75;;;;;;;18.32;89.59;101785.84;5041306;28;20075;-70
2023/08/17 08:34:40;;;;;;;9.98;5.30;;;;;;;18.25;89.17;101792.63;5039243;28;20387;-70
2023/08/17 08:37:05;;;;;;;7.45;5.18;;;;;;;18.18;90.08;101794.00;5039666;28;20483;-69
2023/08/17 08:39:31;;;;;;;6.05;4.90;;;;;;;18.18;90.17;101791.31;5048588;28;20505;-70
2023/08/17 08:41:57;;;;;;;6.78;5.15;;;;;;;18.08;90.58;101796.47;5047062;28;20109;-69
2023/08/17 08:44:23;;;;;;;8.57;5.22;;;;;;;18.03;91.60;101786.97;5051050;28;20064;-72
2023/08/17 08:46:48;;;;;;;6.15;4.80;;;;;;;18.07;91.29;101785.81;5048265;28;20028;-71
2023/08/17 08:49:19;;;;;;;6.63;5.60;;;;;;;18.07;92.04;101786.66;5030019;28;20498;-72
2023/08/17 08:51:48;;;;;;;6.82;5.35;;;;;;;18.14;91.71;101787.97;5028934;28;20137;-70
2023/08/17 08:54:20;;;;;;;6.55;5.03;;;;;;;18.17;91.71;101776.97;5045747;28;20063;-71
2023/08/17 08:56:47;;;;;;;7.40;4.95;;;;;;;18.19;91.56;101779.59;5042883;28;20032;-71
2023/08/17 08:59:12;;;;;;;7.82;5.60;;;;;;;18.19;90.73;101776.91;5052103;28;20313;-70
2023/08/17 09:01:38;;;;;;;7.57;5.88;;;;;;;18.12;91.25;101776.44;5039474;28;20063;-69
2023/08/17 09:04:07;;;;;;;14.05;6.68;;;;;;;18.09;91.53;101771.25;5047684;28;20029;-71
2023/08/17 09:06:33;;;;;;;9.68;6.05;;;;;;;18.25;91.33;101771.06;5048660;28;20056;-72
2023/08/17 09:09:02;;;;;;;8.95;5.70;;;;;;;18.27;91.11;101768.28;5050683;28;20051;-70
2023/08/17 09:11:28;;;;;;;8.00;5.57;;;;;;;18.30;91.39;101771.59;5038248;28;20155;-72
2023/08/17 09:13:54;;;;;;;8.35;5.82;;;;;;;18.54;90.75;101762.81;5067275;28;20055;-72
2023/08/17 09:16:19;;;;;;;10.95;6.47;;;;;;;18.56;89.40;101769.84;5045647;28;20150;-71
2023/08/17 09:18:45;;;;;;;10.20;6.88;;;;;;;18.49;89.01;101765.81;5040902;28;20661;-69
2023/08/17 09:21:21;;;;;;;9.63;6.20;;;;;;;18.58;90.34;101772.41;5034671;28;20030;-71
2023/08/17 09:23:51;;;;;;;9.32;7.13;;;;;;;18.53;89.56;101770.03;5041112;28;20025;-70
2023/08/17 09:26:19;;;;;;;11.30;6.60;;;;;;;18.56;89.48;101767.13;5042380;28;20048;-70
2023/08/17 09:28:45;;;;;;;9.23;6.60;;;;;;;18.58;88.77;101767.88;5043385;28;20100;-71
2023/08/17 09:31:11;;;;;;;10.52;6.80;;;;;;;18.65;88.96;101768.31;5045678;28;20147;-71
2023/08/17 09:33:37;;;;;;;9.90;6.65;;;;;;;18.53;88.98;101763.78;5040035;28;20033;-71
2023/08/17 09:36:02;;;;;;;10.30;7.00;;;;;;;18.52;88.98;101772.81;5031750;28;20037;-72
2023/08/17 09:38:28;;;;;;;12.13;7.00;;;;;;;18.40;89.54;101771.88;5030655;28;20424;-72
2023/08/17 09:40:54;;;;;;;10.73;6.78;;;;;;;18.49;90.20;101773.91;5039825;28;20151;-70
2023/08/17 09:43:20;;;;;;;11.57;7.28;;;;;;;18.52;89.50;101772.81;5043322;28;20074;-69
2023/08/17 09:45:49;;;;;;;11.70;7.60;;;;;;;18.54;89.88;101770.91;5049455;28;20087;-69
2023/08/17 09:48:19;;;;;;;14.38;8.13;;;;;;;18.64;89.54;101767.47;5044707;28;20079;-70
2023/08/17 09:50:45;;;;;;;11.80;7.43;;;;;;;18.78;89.00;101762.97;5037316;28;20112;-69
2023/08/17 09:53:15;;;;;;;10.43;7.50;;;;;;;18.72;89.14;101766.94;5037505;28;20037;-69
2023/08/17 09:55:43;;;;;;;11.48;7.45;;;;;;;18.70;88.75;101765.34;5051060;28;20032;-70
2023/08/17 09:58:08;;;;;;;12.85;7.82;;;;;;;18.67;89.17;101763.66;5051696;28;20036;-70
2023/08/17 10:00:35;;;;;;;10.13;7.20;;;;;;;18.75;89.55;101761.31;5033130;28;20028;-70
2023/08/17 10:03:02;;;;;;;12.05;8.20;;;;;;;18.76;88.58;101760.34;5034965;28;20029;-69
2023/08/17 10:05:38;;;;;;;11.68;7.05;;;;;;;18.83;89.35;101748.16;5031823;28;20035;-69
2023/08/17 10:08:07;;;;;;;10.50;7.32;;;;;;;18.95;87.62;101754.53;5034668;28;20476;-69
2023/08/17 10:10:36;;;;;;;19.05;7.68;;;;;;;18.88;87.42;101750.53;5047579;28;20032;-69
2023/08/17 10:13:37;;;;;;;11.30;7.70;;;;;;;19.05;87.85;101757.41;5050570;28;20078;-70
2023/08/17 10:16:07;;;;;;;13.35;8.23;;;;;;;18.96;87.71;101748.16;5034502;28;20024;-70
2023/08/17 10:18:56;;;;;;;11.77;7.85;;;;;;;19.16;87.70;101747.56;5035673;28;20029;-70
2023/08/17 10:21:29;;;;;;;11.25;7.57;;;;;;;19.38;87.19;101744.16;5034532;28;20037;-73
2023/08/17 10:23:57;;;;;;;13.00;8.35;;;;;;;19.35;85.92;101740.81;5040960;28;20029;-72
2023/08/17 10:26:23;;;;;;;11.32;7.13;;;;;;;19.39;86.68;101737.78;5043666;28;20120;-72
2023/08/17 10:28:50;;;;;;;10.10;7.55;;;;;;;19.66;86.49;101731.34;5035816;28;20033;-70
2023/08/17 10:31:15;;;;;;;9.70;7.65;;;;;;;19.92;84.62;101725.81;5029446;28;20113;-71
2023/08/17 10:33:44;;;;;;;12.75;7.18;;;;;;;20.27;82.66;101726.63;5039197;28;20108;-72
2023/08/17 10:36:11;;;;;;;12.20;7.82;;;;;;;20.42;82.06;101727.28;5033245;28;20091;-72
2023/08/17 10:38:36;;;;;;;14.43;7.80;;;;;;;20.63;80.87;101732.88;5039207;28;20032;-70
2023/08/17 10:41:11;;;;;;;12.60;8.15;;;;;;;20.76;80.04;101733.63;5046579;28;20025;-71
2023/08/17 10:43:53;;;;;;;11.30;8.13;;;;;;;20.95;79.02;101729.47;5038709;28;20108;-72
2023/08/17 10:46:19;;;;;;;10.27;7.45;;;;;;;20.91;78.00;101719.88;5045720;28;20064;-70
2023/08/17 10:48:44;;;;;;;12.40;7.30;;;;;;;21.05;77.48;101720.44;5041000;28;20101;-70
2023/08/17 10:51:13;;;;;;;11.27;7.70;;;;;;;21.27;76.79;101721.41;5045029;28;20044;-70
2023/08/17 10:53:42;;;;;;;11.25;7.88;;;;;;;21.71;74.09;101720.47;5041019;28;20029;-70
2023/08/17 10:56:11;;;;;;;15.43;8.57;;;;;;;21.84;73.81;101717.56;5048931;28;20401;-73
2023/08/17 10:58:36;;;;;;;11.23;7.60;;;;;;;22.04;73.45;101716.75;5049116;28;20033;-72
2023/08/17 11:01:02;;;;;;;15.70;9.05;;;;;;;22.22;72.19;101722.47;5048382;28;20052;-72
2023/08/17 11:03:28;;;;;;;11.35;7.97;;;;;;;22.12;71.86;101725.09;5052419;28;20538;-71
2023/08/17 11:05:58;;;;;;;13.77;8.10;;;;;;;22.08;71.96;101722.75;5042338;28;20021;-71
2023/08/17 11:08:39;;;;;;;12.57;8.07;;;;;;;22.11;72.06;101736.03;5038021;28;20029;-71
2023/08/17 11:11:13;;;;;;;13.27;8.82;;;;;;;22.45;71.17;101725.91;5043818;28;20475;-69
2023/08/17 11:13:44;;;;;;;12.00;7.95;;;;;;;22.75;69.69;101732.34;5053074;28;20450;-70
2023/08/17 11:16:11;;;;;;;10.82;7.80;;;;;;;23.03;68.45;101736.19;5042538;28;20025;-70
2023/08/17 11:18:36;;;;;;;13.23;7.80;;;;;;;22.82;69.43;101745.22;5032509;28;20025;-72
2023/08/17 11:21:03;;;;;;;14.20;7.95;;;;;;;22.35;70.73;101742.09;5061026;28;20587;-71